createdAt,value
2022-11-29T00:01:35.166Z,100859.59
2022-11-29T00:04:02.800Z,100861.38
2022-11-29T00:06:33.036Z,100864.88
2022-11-29T00:09:03.327Z,100872.19
2022-11-29T00:11:53.363Z,100869.44
2022-11-29T00:14:20.925Z,100866.84
2022-11-29T00:17:01.869Z,100873.09
2022-11-29T00:19:30.866Z,100865.56
2022-11-29T00:21:58.181Z,100867.31
2022-11-29T00:24:25.424Z,100865.03
2022-11-29T00:26:53.845Z,100865.25
2022-11-29T00:29:21.041Z,100873.59
2022-11-29T00:31:48.320Z,100871.47
2022-11-29T00:34:15.533Z,100875.84
2022-11-29T00:36:42.727Z,100882.47
2022-11-29T00:39:12.046Z,100885.84
2022-11-29T00:41:39.699Z,100885.59
2022-11-29T00:44:06.898Z,100880.84
2022-11-29T00:46:34.092Z,100884.19
2022-11-29T00:49:01.339Z,100882.38
2022-11-29T00:51:28.597Z,100887.03
2022-11-29T00:53:55.851Z,100889.28
2022-11-29T00:56:23.123Z,100884.00
2022-11-29T00:58:50.388Z,100886.63
2022-11-29T01:01:17.883Z,100882.94
2022-11-29T01:03:45.223Z,100878.59
2022-11-29T01:06:14.986Z,100879.31
2022-11-29T01:08:42.621Z,100878.66
2022-11-29T01:11:18.871Z,100886.84
2022-11-29T01:13:46.137Z,100879.91
2022-11-29T01:16:14.359Z,100884.66
2022-11-29T01:18:42.413Z,100887.78
2022-11-29T01:21:12.749Z,100890.09
2022-11-29T01:23:41.011Z,100888.75
2022-11-29T01:26:14.274Z,100887.81
2022-11-29T01:28:42.106Z,100888.88
2022-11-29T01:31:14.918Z,100896.97
2022-11-29T01:33:42.372Z,100891.72
2022-11-29T01:36:10.391Z,100894.38
2022-11-29T01:38:37.670Z,100902.19
2022-11-29T01:41:11.577Z,100901.78
2022-11-29T01:44:14.017Z,100903.91
2022-11-29T01:46:46.047Z,100913.06
2022-11-29T01:49:19.309Z,100912.13
2022-11-29T01:51:50.989Z,100909.78
2022-11-29T01:54:18.507Z,100922.28
2022-11-29T01:56:47.459Z,100918.22
2022-11-29T01:59:18.442Z,100923.66
2022-11-29T02:01:45.822Z,100926.25
2022-11-29T02:04:13.912Z,100923.22
2022-11-29T02:06:41.644Z,100929.56
2022-11-29T02:09:19.792Z,100934.66
2022-11-29T02:12:32.542Z,100932.78
2022-11-29T02:15:17.962Z,100941.53
2022-11-29T02:17:57.191Z,100934.97
2022-11-29T02:20:45.889Z,100940.50
2022-11-29T02:23:13.085Z,100942.59
2022-11-29T02:25:57.837Z,100935.94
2022-11-29T02:28:48.795Z,100937.34
2022-11-29T02:31:50.323Z,100940.44
2022-11-29T02:34:40.639Z,100944.28
2022-11-29T02:37:19.882Z,100941.56
2022-11-29T02:40:15.224Z,100940.03
2022-11-29T02:43:13.699Z,100952.69
2022-11-29T02:45:49.295Z,100948.22
2022-11-29T02:48:35.144Z,100945.75
2022-11-29T02:51:18.901Z,100946.41
2022-11-29T02:54:20.466Z,100951.34
2022-11-29T02:56:54.046Z,100940.69
2022-11-29T02:59:39.259Z,100952.00
2022-11-29T03:02:28.761Z,100949.91
2022-11-29T03:05:15.089Z,100950.72
2022-11-29T03:07:54.607Z,100953.91
2022-11-29T03:10:39.694Z,100951.41
2022-11-29T03:13:12.310Z,100959.34
2022-11-29T03:15:48.017Z,100952.13
2022-11-29T03:18:34.873Z,100955.31
2022-11-29T03:21:16.575Z,100964.63
2022-11-29T03:23:47.896Z,100964.03
2022-11-29T03:26:19.405Z,100966.16
2022-11-29T03:29:07.080Z,100971.16
2022-11-29T03:32:00.298Z,100972.63
2022-11-29T03:34:43.166Z,100979.47
2022-11-29T03:37:19.704Z,100985.63
2022-11-29T03:40:05.223Z,100991.50
2022-11-29T03:42:43.487Z,100988.22
2022-11-29T03:45:16.614Z,100996.63
2022-11-29T03:47:54.137Z,100991.75
2022-11-29T03:50:26.832Z,100993.56
2022-11-29T03:52:57.067Z,100990.59
2022-11-29T03:55:27.152Z,100994.31
2022-11-29T03:58:16.824Z,100992.84
2022-11-29T04:00:50.162Z,100998.78
2022-11-29T04:03:49.238Z,101003.97
2022-11-29T04:06:34.831Z,100997.47
2022-11-29T04:09:25.315Z,101002.91
2022-11-29T04:12:14.255Z,100999.41
2022-11-29T04:14:56.742Z,101006.31
2022-11-29T04:17:57.580Z,101011.72
2022-11-29T04:20:27.501Z,101016.88
2022-11-29T04:23:15.940Z,101024.09
2022-11-29T04:25:55.207Z,101025.00
2022-11-29T04:28:33.717Z,101025.06
2022-11-29T04:31:22.463Z,101036.72
2022-11-29T04:33:58.958Z,101030.41
2022-11-29T04:36:51.427Z,101036.59
2022-11-29T04:39:40.468Z,101040.47
2022-11-29T04:42:20.616Z,101040.69
2022-11-29T04:44:56.927Z,101042.69
2022-11-29T04:47:33.092Z,101050.47
2022-11-29T04:50:33.453Z,101052.66
2022-11-29T04:53:38.296Z,101044.63
2022-11-29T04:56:20.554Z,101053.06
2022-11-29T04:59:14.819Z,101066.16
2022-11-29T05:02:06.627Z,101059.69
2022-11-29T05:05:15.689Z,101059.69
2022-11-29T05:08:03.081Z,101060.44
2022-11-29T05:11:07.950Z,101063.22
2022-11-29T05:14:13.364Z,101069.13
2022-11-29T05:16:47.066Z,101071.16
2022-11-29T05:19:43.444Z,101071.13
2022-11-29T05:22:13.602Z,101076.31
2022-11-29T05:24:40.677Z,101064.66
2022-11-29T05:27:35.287Z,101080.84
2022-11-29T05:30:14.258Z,101078.84
2022-11-29T05:32:59.680Z,101079.97
2022-11-29T05:36:00.456Z,101089.34
2022-11-29T05:39:00.072Z,101095.09
2022-11-29T05:41:42.487Z,101104.75
2022-11-29T05:44:17.483Z,101105.66
2022-11-29T05:46:51.057Z,101110.38
2022-11-29T05:49:21.242Z,101109.00
2022-11-29T05:52:06.909Z,101114.56
2022-11-29T05:54:37.650Z,101112.19
2022-11-29T05:57:29.912Z,101118.00
2022-11-29T05:59:57.587Z,101120.03
2022-11-29T06:02:56.225Z,101129.47
2022-11-29T06:05:39.765Z,101128.78
2022-11-29T06:08:13.675Z,101127.25
2022-11-29T06:10:52.372Z,101133.34
2022-11-29T06:13:33.516Z,101145.38
2022-11-29T06:16:36.471Z,101137.63
2022-11-29T06:19:34.752Z,101141.97
2022-11-29T06:22:27.407Z,101139.75
2022-11-29T06:25:01.466Z,101149.00
2022-11-29T06:27:50.334Z,101159.00
2022-11-29T06:30:23.970Z,101148.63
2022-11-29T06:33:08.596Z,101150.88
2022-11-29T06:35:58.588Z,101154.22
2022-11-29T06:38:30.963Z,101154.81
2022-11-29T06:41:02.059Z,101153.97
2022-11-29T06:43:30.637Z,101162.28
2022-11-29T06:46:06.254Z,101153.88
2022-11-29T06:48:44.940Z,101168.13
2022-11-29T06:51:28.279Z,101173.81
2022-11-29T06:54:03.839Z,101172.00
2022-11-29T06:56:43.671Z,101173.69
2022-11-29T06:59:35.128Z,101171.16
2022-11-29T07:02:13.490Z,101176.09
2022-11-29T07:05:22.136Z,101181.44
2022-11-29T07:07:50.753Z,101177.31
2022-11-29T07:10:19.793Z,101192.75
2022-11-29T07:12:48.635Z,101193.75
2022-11-29T07:15:18.986Z,101191.25
2022-11-29T07:18:13.754Z,101191.97
2022-11-29T07:20:47.899Z,101203.41
2022-11-29T07:23:45.528Z,101202.81
2022-11-29T07:26:34.657Z,101195.66
2022-11-29T07:29:36.635Z,101198.09
2022-11-29T07:32:25.634Z,101199.66
2022-11-29T07:35:04.725Z,101204.56
2022-11-29T07:37:52.912Z,101203.66
2022-11-29T07:40:29.318Z,101213.41
2022-11-29T07:43:07.684Z,101202.84
2022-11-29T07:45:38.049Z,101203.66
2022-11-29T07:48:05.608Z,101213.44
2022-11-29T07:50:32.997Z,101210.00
2022-11-29T07:53:00.376Z,101209.13
2022-11-29T07:55:27.742Z,101229.41
2022-11-29T07:57:55.217Z,101218.78
2022-11-29T08:00:22.913Z,101224.72
2022-11-29T08:02:50.456Z,101226.50
2022-11-29T08:05:18.506Z,101224.44
2022-11-29T08:07:47.300Z,101232.25
2022-11-29T08:10:16.079Z,101226.91
2022-11-29T08:12:45.588Z,101233.06
2022-11-29T08:15:13.149Z,101236.06
2022-11-29T08:17:40.459Z,101234.66
2022-11-29T08:20:08.960Z,101233.25
2022-11-29T08:22:36.343Z,101242.34
2022-11-29T08:25:04.433Z,101246.59
2022-11-29T08:27:31.819Z,101253.31
2022-11-29T08:29:59.354Z,101250.19
2022-11-29T08:32:27.239Z,101241.66
2022-11-29T08:34:54.522Z,101242.97
2022-11-29T08:37:21.851Z,101252.81
2022-11-29T08:39:49.109Z,101256.81
2022-11-29T08:42:16.526Z,101253.94
2022-11-29T08:44:44.147Z,101255.03
2022-11-29T08:47:30.453Z,101268.25
2022-11-29T08:50:03.700Z,101274.16
2022-11-29T08:52:52.623Z,101279.88
2022-11-29T08:55:21.990Z,101291.34
2022-11-29T08:57:50.537Z,101298.00
2022-11-29T09:00:18.991Z,101296.78
2022-11-29T09:02:46.412Z,101300.56
2022-11-29T09:05:15.070Z,101308.31
2022-11-29T09:07:42.366Z,101311.97
2022-11-29T09:10:10.227Z,101312.44
2022-11-29T09:12:39.047Z,101306.91
2022-11-29T09:15:11.818Z,101314.31
2022-11-29T09:17:39.183Z,101314.19
2022-11-29T09:20:08.044Z,101321.81
2022-11-29T09:22:35.315Z,101322.78
2022-11-29T09:25:02.595Z,101325.44
2022-11-29T09:27:29.843Z,101330.56
2022-11-29T09:29:57.070Z,101339.28
2022-11-29T09:32:24.490Z,101342.81
2022-11-29T09:34:51.744Z,101345.25
2022-11-29T09:37:18.909Z,101340.25
2022-11-29T09:39:46.193Z,101356.16
2022-11-29T09:42:58.617Z,101354.16
2022-11-29T09:45:30.468Z,101357.91
2022-11-29T09:48:23.376Z,101359.63
2022-11-29T09:51:24.152Z,101359.94
2022-11-29T09:54:11.246Z,101373.34
2022-11-29T09:56:42.170Z,101373.69
2022-11-29T09:59:15.584Z,101378.03
2022-11-29T10:01:47.595Z,101379.16
2022-11-29T10:04:19.329Z,101376.50
2022-11-29T10:07:19.474Z,101395.97
2022-11-29T10:10:15.967Z,101397.44
2022-11-29T10:12:46.850Z,101394.78
2022-11-29T10:15:22.014Z,101400.94
2022-11-29T10:18:04.014Z,101394.19
2022-11-29T10:20:42.452Z,101398.97
2022-11-29T10:23:32.634Z,101391.91
2022-11-29T10:25:59.985Z,101394.47
2022-11-29T10:28:33.083Z,101392.44
2022-11-29T10:31:16.890Z,101398.47
2022-11-29T10:33:44.410Z,101405.38
2022-11-29T10:36:30.612Z,101407.28
2022-11-29T10:39:01.738Z,101403.34
2022-11-29T10:41:29.144Z,101411.50
2022-11-29T10:43:57.995Z,101407.22
2022-11-29T10:46:27.460Z,101406.50
2022-11-29T10:48:54.949Z,101409.94
2022-11-29T10:51:22.238Z,101413.44
2022-11-29T10:53:49.771Z,101407.41
2022-11-29T10:56:27.496Z,101410.13
2022-11-29T10:59:09.285Z,101405.38
2022-11-29T11:01:42.679Z,101409.25
2022-11-29T11:04:16.151Z,101414.13
2022-11-29T11:06:49.265Z,101403.63
2022-11-29T11:09:20.998Z,101409.91
2022-11-29T11:11:53.077Z,101411.50
2022-11-29T11:14:37.499Z,101411.59
2022-11-29T11:17:26.365Z,101406.38
2022-11-29T11:19:54.639Z,101403.97
2022-11-29T11:22:23.122Z,101407.34
2022-11-29T11:25:00.943Z,101410.69
2022-11-29T11:27:41.401Z,101412.88
2022-11-29T11:30:24.523Z,101416.66
2022-11-29T11:33:16.077Z,101408.53
2022-11-29T11:35:43.350Z,101403.38
2022-11-29T11:38:17.556Z,101398.13
2022-11-29T11:40:45.202Z,101411.31
2022-11-29T11:43:20.726Z,101411.00
2022-11-29T11:45:54.538Z,101412.16
2022-11-29T11:48:22.114Z,101405.00
2022-11-29T11:50:49.289Z,101409.94
2022-11-29T11:53:21.362Z,101410.31
2022-11-29T11:56:17.537Z,101414.97
2022-11-29T11:58:53.808Z,101407.44
2022-11-29T12:01:38.092Z,101407.03
2022-11-29T12:04:15.602Z,101398.59
2022-11-29T12:06:58.918Z,101402.81
2022-11-29T12:09:57.977Z,101404.16
2022-11-29T12:12:30.820Z,101406.66
2022-11-29T12:15:01.392Z,101407.16
2022-11-29T12:17:35.573Z,101418.34
2022-11-29T12:20:31.266Z,101407.50
2022-11-29T12:23:30.833Z,101417.03
2022-11-29T12:26:01.684Z,101412.81
2022-11-29T12:28:32.360Z,101408.09
2022-11-29T12:31:26.889Z,101412.63
2022-11-29T12:33:54.143Z,101405.47
2022-11-29T12:36:42.559Z,101407.25
2022-11-29T12:39:32.404Z,101411.59
2022-11-29T12:42:05.685Z,101423.00
2022-11-29T12:44:54.716Z,101423.19
2022-11-29T12:47:35.713Z,101423.94
2022-11-29T12:50:07.800Z,101428.88
2022-11-29T12:52:46.231Z,101431.88
2022-11-29T12:55:45.828Z,101431.56
2022-11-29T12:58:24.226Z,101436.69
2022-11-29T13:01:22.534Z,101445.84
2022-11-29T13:04:16.734Z,101445.34
2022-11-29T13:06:48.255Z,101446.66
2022-11-29T13:09:39.683Z,101451.47
2022-11-29T13:12:20.841Z,101450.84
2022-11-29T13:15:17.495Z,101448.06
2022-11-29T13:17:53.940Z,101447.72
2022-11-29T13:20:39.554Z,101443.03
2022-11-29T13:23:15.331Z,101449.00
2022-11-29T13:25:45.249Z,101437.44
2022-11-29T13:28:28.603Z,101446.28
2022-11-29T13:31:12.454Z,101445.84
2022-11-29T13:33:39.840Z,101441.97
2022-11-29T13:36:16.071Z,101443.38
2022-11-29T13:38:55.524Z,101440.53
2022-11-29T13:41:42.869Z,101439.78
2022-11-29T13:44:19.572Z,101433.22
2022-11-29T13:46:58.794Z,101446.72
2022-11-29T13:49:50.581Z,101430.13
2022-11-29T13:52:26.960Z,101430.25
2022-11-29T13:55:12.536Z,101431.88
2022-11-29T14:00:45.205Z,101430.03
2022-11-29T14:03:18.583Z,101436.38
2022-11-29T14:05:48.531Z,101428.53
2022-11-29T14:08:55.073Z,101438.53
2022-11-29T14:11:22.327Z,101432.00
2022-11-29T14:14:08.990Z,101434.16
2022-11-29T14:16:47.051Z,101429.19
2022-11-29T14:19:21.008Z,101425.03
2022-11-29T14:22:06.817Z,101430.53
2022-11-29T14:24:37.065Z,101424.81
2022-11-29T14:27:08.907Z,101434.03
2022-11-29T14:29:53.515Z,101426.09
2022-11-29T14:32:20.786Z,101418.09
2022-11-29T14:34:52.851Z,101423.84
2022-11-29T14:37:27.112Z,101423.97
2022-11-29T14:39:55.058Z,101432.34
2022-11-29T14:42:23.625Z,101437.44
2022-11-29T14:44:53.322Z,101429.41
2022-11-29T14:47:26.955Z,101425.03
2022-11-29T14:49:55.713Z,101427.13
2022-11-29T14:52:38.272Z,101433.91
2022-11-29T14:55:25.893Z,101440.44
2022-11-29T14:57:55.081Z,101447.47
2022-11-29T15:00:45.926Z,101448.03
2022-11-29T15:03:18.513Z,101454.72
2022-11-29T15:05:58.511Z,101453.75
2022-11-29T15:08:48.129Z,101457.47
2022-11-29T15:11:32.149Z,101458.66
2022-11-29T15:14:06.205Z,101458.31
2022-11-29T15:16:57.580Z,101448.72
2022-11-29T15:19:54.110Z,101466.63
2022-11-29T15:22:26.699Z,101471.63
2022-11-29T15:24:57.578Z,101476.13
2022-11-29T15:27:27.227Z,101475.91
2022-11-29T15:29:54.721Z,101480.97
2022-11-29T15:32:28.579Z,101471.94
2022-11-29T15:34:56.388Z,101478.78
2022-11-29T15:37:25.112Z,101478.44
2022-11-29T15:40:05.258Z,101485.63
2022-11-29T15:42:44.974Z,101482.78
2022-11-29T15:45:27.534Z,101474.81
2022-11-29T15:47:55.877Z,101483.22
2022-11-29T15:50:27.897Z,101477.72
2022-11-29T15:53:00.045Z,101473.03
2022-11-29T15:55:27.563Z,101464.06
2022-11-29T15:57:57.745Z,101473.00
2022-11-29T16:00:26.577Z,101477.72
2022-11-29T16:02:58.562Z,101484.44
2022-11-29T16:05:37.312Z,101484.88
2022-11-29T16:08:14.484Z,101490.13
2022-11-29T16:10:47.359Z,101496.31
2022-11-29T16:13:36.078Z,101492.38
2022-11-29T16:16:09.403Z,101501.69
2022-11-29T16:18:37.677Z,101509.50
2022-11-29T16:21:06.046Z,101505.22
2022-11-29T16:23:42.270Z,101513.16
2022-11-29T16:26:22.369Z,101507.91
2022-11-29T16:28:51.943Z,101513.69
2022-11-29T16:31:24.918Z,101514.78
2022-11-29T16:33:52.670Z,101517.69
2022-11-29T16:36:23.648Z,101520.97
2022-11-29T16:38:53.172Z,101519.13
2022-11-29T16:41:37.795Z,101521.44
2022-11-29T16:44:08.968Z,101521.13
2022-11-29T16:46:39.101Z,101521.28
2022-11-29T16:49:24.837Z,101522.06
2022-11-29T16:51:52.436Z,101519.75
2022-11-29T16:54:24.058Z,101519.19
2022-11-29T16:56:53.102Z,101521.59
2022-11-29T16:59:26.606Z,101518.00
2022-11-29T17:01:56.430Z,101523.44
2022-11-29T17:04:25.181Z,101524.94
2022-11-29T17:06:56.067Z,101528.56
2022-11-29T17:09:26.296Z,101535.63
2022-11-29T17:11:54.700Z,101538.50
2022-11-29T17:14:22.243Z,101537.75
2022-11-29T17:16:49.759Z,101538.75
2022-11-29T17:19:18.290Z,101537.38
2022-11-29T17:21:45.692Z,101539.75
2022-11-29T17:24:15.592Z,101531.84
2022-11-29T17:26:43.788Z,101534.53
2022-11-29T17:29:12.487Z,101538.53
2022-11-29T17:31:41.463Z,101542.22
2022-11-29T17:34:08.792Z,101544.50
2022-11-29T17:36:36.517Z,101545.56
2022-11-29T17:39:04.992Z,101545.72
2022-11-29T17:41:32.971Z,101551.47
2022-11-29T17:44:00.473Z,101549.97
2022-11-29T17:46:31.347Z,101561.72
2022-11-29T17:49:00.085Z,101561.25
2022-11-29T17:54:15.008Z,101558.25
2022-11-29T17:56:42.199Z,101574.84
2022-11-29T17:59:10.066Z,101568.06
2022-11-29T18:01:37.358Z,101567.00
2022-11-29T18:04:05.771Z,101574.19
2022-11-29T18:06:40.750Z,101572.63
2022-11-29T18:09:10.081Z,101587.81
2022-11-29T18:11:48.072Z,101580.34
2022-11-29T18:14:23.322Z,101589.41
2022-11-29T18:16:51.314Z,101585.38
2022-11-29T18:19:21.330Z,101596.38
2022-11-29T18:21:49.130Z,101595.31
2022-11-29T18:24:17.075Z,101595.38
2022-11-29T18:26:44.819Z,101595.09
2022-11-29T18:29:12.089Z,101600.50
2022-11-29T18:31:41.778Z,101599.09
2022-11-29T18:34:10.422Z,101600.94
2022-11-29T18:36:40.167Z,101597.63
2022-11-29T18:39:09.890Z,101599.44
2022-11-29T18:41:37.700Z,101598.22
2022-11-29T18:44:10.518Z,101598.03
2022-11-29T18:46:39.109Z,101598.34
2022-11-29T18:49:08.153Z,101599.63
2022-11-29T18:51:36.722Z,101598.44
2022-11-29T18:54:04.875Z,101598.28
2022-11-29T18:56:34.757Z,101602.34
2022-11-29T18:59:04.149Z,101599.34
2022-11-29T19:01:34.240Z,101603.44
2022-11-29T19:04:01.662Z,101601.81
2022-11-29T19:06:37.314Z,101607.94
2022-11-29T19:09:11.222Z,101606.56
2022-11-29T19:11:38.788Z,101604.44
2022-11-29T19:14:16.940Z,101612.13
2022-11-29T19:16:46.021Z,101612.84
2022-11-29T19:19:13.397Z,101617.56
2022-11-29T19:21:40.928Z,101616.69
2022-11-29T19:24:14.218Z,101616.69
2022-11-29T19:26:46.155Z,101614.72
2022-11-29T19:29:14.061Z,101615.97
2022-11-29T19:31:42.550Z,101614.66
2022-11-29T19:34:10.170Z,101624.97
2022-11-29T19:36:43.364Z,101616.34
2022-11-29T19:39:16.400Z,101624.03
2022-11-29T19:41:45.939Z,101612.53
2022-11-29T19:44:13.676Z,101623.50
2022-11-29T19:46:45.974Z,101618.94
2022-11-29T19:49:13.242Z,101614.72
2022-11-29T19:51:40.928Z,101617.91
2022-11-29T19:54:09.305Z,101614.78
2022-11-29T19:56:36.735Z,101612.75
2022-11-29T19:59:04.219Z,101615.44
2022-11-29T20:01:39.796Z,101621.66
2022-11-29T20:04:09.964Z,101616.91
2022-11-29T20:06:37.360Z,101619.44
2022-11-29T20:09:04.796Z,101613.06
2022-11-29T20:11:32.064Z,101614.41
2022-11-29T20:14:00.965Z,101622.41
2022-11-29T20:16:31.658Z,101622.41
2022-11-29T20:18:58.986Z,101626.47
2022-11-29T20:21:31.644Z,101631.47
2022-11-29T20:24:01.280Z,101628.66
2022-11-29T20:26:29.980Z,101624.78
2022-11-29T20:28:58.985Z,101632.88
2022-11-29T20:31:26.295Z,101630.13
2022-11-29T20:33:54.688Z,101636.44
2022-11-29T20:36:24.886Z,101641.34
2022-11-29T20:39:11.830Z,101645.44
2022-11-29T20:42:13.259Z,101643.25
2022-11-29T20:44:49.079Z,101647.31
2022-11-29T20:47:18.921Z,101644.66
2022-11-29T20:49:46.512Z,101649.53
2022-11-29T20:52:31.625Z,101654.59
2022-11-29T20:54:58.958Z,101654.31
2022-11-29T20:57:26.214Z,101661.47
2022-11-29T20:59:53.536Z,101663.09
2022-11-29T21:02:20.995Z,101666.41
2022-11-29T21:04:48.604Z,101667.66
2022-11-29T21:07:16.254Z,101673.16
2022-11-29T21:09:43.507Z,101669.00
2022-11-29T21:12:11.293Z,101670.19
2022-11-29T21:14:38.888Z,101665.50
2022-11-29T21:17:06.474Z,101662.16
2022-11-29T21:19:33.797Z,101665.75
2022-11-29T21:22:23.580Z,101673.38
2022-11-29T21:25:00.742Z,101670.13
2022-11-29T21:27:31.759Z,101672.31
2022-11-29T21:29:59.568Z,101679.72
2022-11-29T21:32:27.450Z,101677.53
2022-11-29T21:34:54.736Z,101681.84
2022-11-29T21:37:24.978Z,101679.66
2022-11-29T21:39:52.093Z,101682.66
2022-11-29T21:42:19.564Z,101686.50
2022-11-29T21:44:47.341Z,101687.31
2022-11-29T21:47:14.830Z,101684.28
2022-11-29T21:49:42.165Z,101678.25
2022-11-29T21:52:09.703Z,101684.78
2022-11-29T21:54:37.719Z,101680.44
2022-11-29T21:57:05.159Z,101678.47
2022-11-29T21:59:33.493Z,101685.97
2022-11-29T22:02:02.222Z,101680.44
2022-11-29T22:04:30.225Z,101686.53
2022-11-29T22:06:58.356Z,101685.13
2022-11-29T22:09:25.722Z,101679.16
2022-11-29T22:11:53.292Z,101683.84
2022-11-29T22:14:20.596Z,101683.00
2022-11-29T22:16:49.912Z,101689.88
2022-11-29T22:19:31.806Z,101691.75
2022-11-29T22:22:01.451Z,101693.63
2022-11-29T22:24:30.859Z,101690.88
2022-11-29T22:26:58.446Z,101694.19
2022-11-29T22:29:26.176Z,101695.81
2022-11-29T22:31:54.954Z,101698.19
2022-11-29T22:34:23.350Z,101695.56
2022-11-29T22:36:50.823Z,101684.22
2022-11-29T22:39:18.263Z,101684.88
2022-11-29T22:41:52.246Z,101692.06
2022-11-29T22:44:21.739Z,101679.94
2022-11-29T22:46:49.086Z,101683.50
2022-11-29T22:49:16.360Z,101686.56
2022-11-29T22:51:43.559Z,101687.59
2022-11-29T22:54:20.334Z,101682.59
2022-11-29T22:56:48.088Z,101681.34
2022-11-29T22:59:15.353Z,101683.03
2022-11-29T23:01:43.181Z,101693.19
2022-11-29T23:04:12.107Z,101686.31
2022-11-29T23:06:44.347Z,101695.41
2022-11-29T23:09:21.734Z,101696.22
2022-11-29T23:11:53.713Z,101695.91
2022-11-29T23:14:22.232Z,101686.56
2022-11-29T23:16:49.540Z,101698.53
2022-11-29T23:19:17.369Z,101686.94
2022-11-29T23:21:46.265Z,101692.28
2022-11-29T23:24:14.839Z,101690.63
2022-11-29T23:26:46.496Z,101687.38
2022-11-29T23:29:15.977Z,101689.31
2022-11-29T23:31:43.891Z,101689.88
2022-11-29T23:34:15.992Z,101694.16
2022-11-29T23:36:48.238Z,101684.50
2022-11-29T23:39:18.515Z,101682.00
2022-11-29T23:41:45.706Z,101681.94
2022-11-29T23:44:13.059Z,101678.19
2022-11-29T23:46:40.257Z,101687.69
2022-11-29T23:49:07.523Z,101686.09
2022-11-29T23:51:34.760Z,101688.03
2022-11-29T23:54:03.043Z,101686.59
2022-11-29T23:56:35.432Z,101691.53
2022-11-29T23:59:03.129Z,101685.25
